createdAt,value
2023-02-12T00:01:02.959Z,31.10
2023-02-12T00:06:05.999Z,31.60
2023-02-12T00:11:12.697Z,32.37
2023-02-12T00:16:17.767Z,31.63
2023-02-12T00:21:19.898Z,34.10
2023-02-12T00:26:22.763Z,35.70
2023-02-12T00:31:28.240Z,31.27
2023-02-12T00:36:32.576Z,32.70
2023-02-12T00:41:34.266Z,33.07
2023-02-12T00:46:36.056Z,34.57
2023-02-12T00:51:37.945Z,36.57
2023-02-12T00:56:39.921Z,30.23
2023-02-12T01:01:41.605Z,35.87
2023-02-12T01:06:43.358Z,37.13
2023-02-12T01:11:44.991Z,30.83
2023-02-12T01:16:46.697Z,31.93
2023-02-12T01:21:48.358Z,33.37
2023-02-12T01:26:50.139Z,32.07
2023-02-12T01:31:51.899Z,32.63
2023-02-12T01:36:53.639Z,30.40
2023-02-12T01:41:55.293Z,29.13
2023-02-12T01:47:02.585Z,30.07
2023-02-12T01:52:23.813Z,33.83
2023-02-12T01:57:27.207Z,32.07
2023-02-12T02:02:30.601Z,27.63
2023-02-12T02:07:32.863Z,30.97
2023-02-12T02:12:53.318Z,34.90
2023-02-12T02:18:34.834Z,32.37
2023-02-12T02:24:13.587Z,29.97
2023-02-12T02:29:31.990Z,28.43
2023-02-12T02:34:50.091Z,31.93
2023-02-12T02:40:22.565Z,32.03
2023-02-12T02:45:36.789Z,28.27
2023-02-12T02:50:44.203Z,29.70
2023-02-12T02:55:50.325Z,33.10
2023-02-12T03:01:03.822Z,33.47
2023-02-12T03:06:14.371Z,28.37
2023-02-12T03:11:26.561Z,31.17
2023-02-12T03:16:32.633Z,35.87
2023-02-12T03:21:50.103Z,31.53
2023-02-12T03:27:02.556Z,33.37
2023-02-12T03:32:41.095Z,31.13
2023-02-12T03:38:02.743Z,29.77
2023-02-12T03:43:23.040Z,30.87
2023-02-12T03:48:36.361Z,35.47
2023-02-12T03:53:38.011Z,34.20
2023-02-12T03:58:41.500Z,38.43
2023-02-12T04:03:43.795Z,33.27
2023-02-12T04:08:45.564Z,31.33
2023-02-12T04:14:14.200Z,34.43
2023-02-12T04:19:25.812Z,28.63
2023-02-12T04:25:19.975Z,31.77
2023-02-12T04:30:29.733Z,37.93
2023-02-12T04:35:42.663Z,34.60
2023-02-12T04:40:44.715Z,35.07
2023-02-12T04:45:46.438Z,37.83
2023-02-12T04:50:48.377Z,34.50
2023-02-12T04:55:50.750Z,34.20
2023-02-12T05:00:52.487Z,35.07
2023-02-12T05:05:54.691Z,38.30
2023-02-12T05:10:56.653Z,34.53
2023-02-12T05:15:58.681Z,35.60
2023-02-12T05:21:03.252Z,35.10
2023-02-12T05:26:18.948Z,36.70
2023-02-12T05:31:21.757Z,37.87
2023-02-12T05:36:24.909Z,36.17
2023-02-12T05:41:27.056Z,33.77
2023-02-12T05:46:28.810Z,38.50
2023-02-12T05:51:32.130Z,41.37
2023-02-12T05:56:37.043Z,47.07
2023-02-12T06:01:41.273Z,32.70
2023-02-12T06:06:43.801Z,29.03
2023-02-12T06:11:45.707Z,34.33
2023-02-12T06:16:49.686Z,34.70
2023-02-12T06:21:51.453Z,36.20
2023-02-12T06:26:53.236Z,33.93
2023-02-12T06:31:55.220Z,33.93
2023-02-12T06:36:57.192Z,35.30
2023-02-12T06:41:58.913Z,35.47
2023-02-12T06:47:00.705Z,33.77
2023-02-12T06:52:03.530Z,33.17
2023-02-12T06:57:05.382Z,34.27
2023-02-12T07:02:07.132Z,35.87
2023-02-12T07:07:09.496Z,34.37
2023-02-12T07:12:11.251Z,35.97
2023-02-12T07:17:13.035Z,37.53
2023-02-12T07:22:14.768Z,33.20
2023-02-12T07:27:16.528Z,33.27
2023-02-12T07:32:18.248Z,35.00
2023-02-12T07:37:22.747Z,33.13
2023-02-12T07:42:24.610Z,38.77
2023-02-12T07:47:26.395Z,37.13
2023-02-12T07:52:28.149Z,39.93
2023-02-12T07:57:29.872Z,34.73
2023-02-12T08:02:31.661Z,33.20
2023-02-12T08:07:33.449Z,36.20
2023-02-12T08:12:35.397Z,36.20
2023-02-12T08:17:37.651Z,33.53
2023-02-12T08:22:39.380Z,36.07
2023-02-12T08:27:42.162Z,38.27
2023-02-12T08:32:43.926Z,30.70
2023-02-12T08:37:45.650Z,32.73
2023-02-12T08:42:47.427Z,30.00
2023-02-12T08:47:49.182Z,30.40
2023-02-12T08:52:50.915Z,31.40
2023-02-12T08:57:57.836Z,32.10
2023-02-12T09:02:59.787Z,28.53
2023-02-12T09:08:01.512Z,32.70
2023-02-12T09:13:03.341Z,31.80
2023-02-12T09:18:05.578Z,31.13
2023-02-12T09:23:08.933Z,32.37
2023-02-12T09:28:12.491Z,34.87
2023-02-12T09:33:14.285Z,41.87
2023-02-12T09:38:16.073Z,31.23
2023-02-12T09:43:40.284Z,37.23
2023-02-12T09:49:16.454Z,31.43
2023-02-12T09:54:20.979Z,37.17
2023-02-12T09:59:40.513Z,38.77
2023-02-12T10:05:00.208Z,38.97
2023-02-12T10:10:40.355Z,40.20
2023-02-12T10:15:55.854Z,36.20
2023-02-12T10:21:45.780Z,37.23
2023-02-12T10:26:49.912Z,32.30
2023-02-12T10:32:04.495Z,31.03
2023-02-12T10:37:28.987Z,28.33
2023-02-12T10:42:39.200Z,30.03
2023-02-12T10:47:41.340Z,26.83
2023-02-12T10:52:54.863Z,26.13
2023-02-12T10:57:57.659Z,25.63
2023-02-12T11:03:13.664Z,27.40
2023-02-12T11:08:36.798Z,24.48
2023-02-12T11:13:41.607Z,27.90
2023-02-12T11:18:43.535Z,27.73
2023-02-12T11:23:46.178Z,26.40
2023-02-12T11:28:57.459Z,28.00
2023-02-12T11:34:20.224Z,28.30
2023-02-12T11:39:28.663Z,29.07
2023-02-12T11:44:35.178Z,29.80
2023-02-12T11:49:57.164Z,28.80
2023-02-12T11:55:03.382Z,27.53
2023-02-12T12:00:26.116Z,22.93
2023-02-12T12:05:45.756Z,23.77
2023-02-12T12:10:54.088Z,25.10
2023-02-12T12:16:27.631Z,26.33
2023-02-12T12:22:09.806Z,20.70
2023-02-12T12:27:45.186Z,18.77
2023-02-12T12:32:49.356Z,20.13
2023-02-12T12:38:03.415Z,20.60
2023-02-12T12:43:40.260Z,21.08
2023-02-12T12:48:52.594Z,18.00
2023-02-12T12:54:10.126Z,17.67
2023-02-12T12:59:44.190Z,16.08
2023-02-12T13:04:45.887Z,15.30
2023-02-12T13:10:02.624Z,17.08
2023-02-12T13:15:25.143Z,16.85
2023-02-12T13:20:51.400Z,15.43
2023-02-12T13:26:18.800Z,15.05
2023-02-12T13:31:32.957Z,12.88
2023-02-12T13:36:37.765Z,13.13
2023-02-12T13:41:44.159Z,12.55
2023-02-12T13:47:12.312Z,13.60
2023-02-12T13:52:34.336Z,12.85
2023-02-12T13:57:36.172Z,12.88
2023-02-12T14:02:37.869Z,13.38
2023-02-12T14:07:52.147Z,14.40
2023-02-12T14:12:58.053Z,14.30
2023-02-12T14:18:02.615Z,15.90
2023-02-12T14:23:29.068Z,15.70
2023-02-12T14:28:52.154Z,17.63
2023-02-12T14:34:15.379Z,17.20
2023-02-12T14:39:20.150Z,19.30
2023-02-12T14:44:23.344Z,20.73
2023-02-12T14:49:34.227Z,19.63
2023-02-12T14:55:06.480Z,20.60
2023-02-12T15:00:17.393Z,19.83
2023-02-12T15:05:24.091Z,20.30
2023-02-12T15:10:32.696Z,21.23
2023-02-12T15:15:39.342Z,23.00
2023-02-12T15:20:50.656Z,23.07
2023-02-12T15:25:52.482Z,22.37
2023-02-12T15:30:56.527Z,21.03
2023-02-12T15:35:59.671Z,24.03
2023-02-12T15:41:03.617Z,23.13
2023-02-12T15:46:14.213Z,40.23
2023-02-12T15:51:24.155Z,38.67
2023-02-12T15:56:27.158Z,26.53
2023-02-12T16:01:32.200Z,27.77
2023-02-12T16:06:36.754Z,24.73
2023-02-12T16:11:38.857Z,24.17
2023-02-12T16:16:45.628Z,23.77
2023-02-12T16:21:58.682Z,28.37
2023-02-12T16:27:09.682Z,24.33
2023-02-12T16:32:38.526Z,22.83
2023-02-12T16:37:47.282Z,24.83
2023-02-12T16:42:48.963Z,27.50
2023-02-12T16:47:51.530Z,31.47
2023-02-12T16:53:01.496Z,27.77
2023-02-12T16:58:03.229Z,28.80
2023-02-12T17:03:05.332Z,26.60
2023-02-12T17:08:13.575Z,22.60
2023-02-12T17:13:16.567Z,25.03
2023-02-12T17:18:18.729Z,24.07
2023-02-12T17:23:21.157Z,27.97
2023-02-12T17:28:25.087Z,27.10
2023-02-12T17:33:27.686Z,27.87
2023-02-12T17:38:29.415Z,44.00
2023-02-12T17:43:31.192Z,32.70
2023-02-12T17:48:32.912Z,31.50
2023-02-12T17:53:34.675Z,33.40
2023-02-12T17:58:36.437Z,34.47
2023-02-12T18:03:38.658Z,32.10
2023-02-12T18:08:41.502Z,33.50
2023-02-12T18:13:43.285Z,32.60
2023-02-12T18:18:45.078Z,29.33
2023-02-12T18:23:47.050Z,28.00
2023-02-12T18:28:49.175Z,28.87
2023-02-12T18:33:51.509Z,38.63
2023-02-12T18:38:53.660Z,36.67
2023-02-12T18:43:57.292Z,69.87
2023-02-12T18:48:59.528Z,50.03
2023-02-12T18:54:05.275Z,42.23
2023-02-12T18:59:08.436Z,36.30
2023-02-12T19:04:12.719Z,34.93
2023-02-12T19:09:16.756Z,35.73
2023-02-12T19:14:20.732Z,31.10
2023-02-12T19:19:23.747Z,33.73
2023-02-12T19:24:28.700Z,31.40
2023-02-12T19:29:36.902Z,28.17
2023-02-12T19:34:38.617Z,30.87
2023-02-12T19:39:40.763Z,31.47
2023-02-12T19:44:42.643Z,30.33
2023-02-12T19:49:44.466Z,32.77
2023-02-12T19:54:46.210Z,30.30
2023-02-12T19:59:47.936Z,28.90
2023-02-12T20:04:49.846Z,33.40
2023-02-12T20:09:52.240Z,33.27
2023-02-12T20:14:55.649Z,35.57
2023-02-12T20:19:57.404Z,29.47
2023-02-12T20:24:59.347Z,32.70
2023-02-12T20:30:01.099Z,31.10
2023-02-12T20:35:02.809Z,30.30
2023-02-12T20:40:05.205Z,29.23
2023-02-12T20:45:07.234Z,33.30
2023-02-12T20:50:09.279Z,30.37
2023-02-12T20:55:11.252Z,31.17
2023-02-12T21:00:13.881Z,29.73
2023-02-12T21:05:15.686Z,27.17
2023-02-12T21:10:17.797Z,29.17
2023-02-12T21:15:19.548Z,29.67
2023-02-12T21:20:21.236Z,31.50
2023-02-12T21:25:23.089Z,27.80
2023-02-12T21:30:25.084Z,28.07
2023-02-12T21:35:26.796Z,27.20
2023-02-12T21:40:28.565Z,29.00
2023-02-12T21:45:30.364Z,27.97
2023-02-12T21:50:34.692Z,26.03
2023-02-12T21:55:37.723Z,24.60
2023-02-12T22:00:39.641Z,25.13
2023-02-12T22:05:41.372Z,27.83
2023-02-12T22:10:43.053Z,24.10
2023-02-12T22:15:44.707Z,24.87
2023-02-12T22:20:46.407Z,25.40
2023-02-12T22:25:48.087Z,26.00
2023-02-12T22:30:49.781Z,28.13
2023-02-12T22:35:51.618Z,27.03
2023-02-12T22:40:53.513Z,28.50
2023-02-12T22:45:55.308Z,28.43
2023-02-12T22:50:58.443Z,27.03
2023-02-12T22:56:03.895Z,26.57
2023-02-12T23:01:12.254Z,26.43
2023-02-12T23:06:16.552Z,29.73
2023-02-12T23:11:18.350Z,26.40
2023-02-12T23:16:20.698Z,32.63
2023-02-12T23:21:22.597Z,25.40
2023-02-12T23:26:24.506Z,25.87
2023-02-12T23:31:26.360Z,26.50
2023-02-12T23:36:29.076Z,26.27
2023-02-12T23:41:30.788Z,24.73
2023-02-12T23:46:32.505Z,25.27
2023-02-12T23:51:34.862Z,25.93
2023-02-12T23:56:36.650Z,27.93
